Terminal Aerodrome Forecast
Issued by NWS

Home | Current Version | Previous Version | Text Only | Print | Product List | Glossary On
Versions: 1 2 3 4 5 6 7 8 9 10 11 12 13 14 15 16
000
FTUS41 KGYX 301409 AAA
TAFAUG
TAF AMD
KAUG 301409Z 3014/0112 03009KT P6SM OVC005
     FM010000 06003KT 6SM BR OVC007
     FM010200 03004KT 1 1/2SM BR OVC002=

USA.gov is the U.S. government's official web portal to all federal, state and local government web resources and services.